createdAt,value
2019-02-27T00:00:44.040Z,19.50
2019-02-27T00:03:12.662Z,19.37
2019-02-27T00:05:41.708Z,17.70
2019-02-27T00:08:10.982Z,17.95
2019-02-27T00:10:39.891Z,20.62
2019-02-27T00:13:08.366Z,24.60
2019-02-27T00:15:37.961Z,17.57
2019-02-27T00:18:07.010Z,21.85
2019-02-27T00:20:37.036Z,19.30
2019-02-27T00:23:05.876Z,23.20
2019-02-27T00:25:36.102Z,17.45
2019-02-27T00:28:04.519Z,19.57
2019-02-27T00:30:32.957Z,17.42
2019-02-27T00:33:01.380Z,16.32
2019-02-27T00:35:29.774Z,17.70
2019-02-27T00:37:58.215Z,17.25
2019-02-27T00:40:26.614Z,13.53
2019-02-27T00:42:55.057Z,13.90
2019-02-27T00:45:23.533Z,18.73
2019-02-27T00:47:53.286Z,14.95
2019-02-27T00:50:22.279Z,14.55
2019-02-27T00:52:51.651Z,17.77
2019-02-27T00:55:20.177Z,19.57
2019-02-27T00:57:48.582Z,17.25
2019-02-27T01:00:18.392Z,18.12
2019-02-27T01:02:46.849Z,19.02
2019-02-27T01:05:15.527Z,15.72
2019-02-27T01:07:43.950Z,13.95
2019-02-27T01:10:12.996Z,13.00
2019-02-27T01:12:41.504Z,13.78
2019-02-27T01:15:11.745Z,14.20
2019-02-27T01:17:40.169Z,13.13
2019-02-27T01:20:13.787Z,15.00
2019-02-27T01:22:42.267Z,14.68
2019-02-27T01:25:10.775Z,14.30
2019-02-27T01:27:39.182Z,10.05
2019-02-27T01:30:10.661Z,14.40
2019-02-27T01:32:39.378Z,12.82
2019-02-27T01:35:09.829Z,12.20
2019-02-27T01:37:38.241Z,15.65
2019-02-27T01:40:10.084Z,15.98
2019-02-27T01:42:38.493Z,18.02
2019-02-27T01:45:09.903Z,16.00
2019-02-27T01:47:38.699Z,11.73
2019-02-27T01:50:30.401Z,15.95
2019-02-27T01:52:58.816Z,14.07
2019-02-27T01:55:27.263Z,15.88
2019-02-27T01:57:55.676Z,14.75
2019-02-27T02:00:24.145Z,12.63
2019-02-27T02:02:52.863Z,13.83
2019-02-27T02:05:26.111Z,15.00
2019-02-27T02:07:51.812Z,12.82
2019-02-27T02:10:20.225Z,15.00
2019-02-27T02:12:51.873Z,12.82
2019-02-27T02:15:45.414Z,11.03
2019-02-27T02:18:25.745Z,12.93
2019-02-27T02:21:09.337Z,11.15
2019-02-27T02:24:07.901Z,12.75
2019-02-27T02:26:50.795Z,11.85
2019-02-27T02:29:41.564Z,14.47
2019-02-27T02:32:30.754Z,12.50
2019-02-27T02:35:30.746Z,11.55
2019-02-27T02:38:20.265Z,12.60
2019-02-27T02:41:27.918Z,14.75
2019-02-27T02:44:05.373Z,12.73
2019-02-27T02:46:44.888Z,13.85
2019-02-27T02:49:15.669Z,13.35
2019-02-27T02:51:56.222Z,12.80
2019-02-27T02:54:45.909Z,12.95
2019-02-27T02:57:19.938Z,12.75
2019-02-27T02:59:51.306Z,12.30
2019-02-27T03:02:40.997Z,12.82
2019-02-27T03:05:41.321Z,15.72
2019-02-27T03:08:21.141Z,13.72
2019-02-27T03:10:58.379Z,12.30
2019-02-27T03:13:41.525Z,11.10
2019-02-27T03:16:14.599Z,14.23
2019-02-27T03:18:58.116Z,10.30
2019-02-27T03:21:52.185Z,11.08
2019-02-27T03:24:27.907Z,16.60
2019-02-27T03:27:08.385Z,12.80
2019-02-27T03:29:51.978Z,13.40
2019-02-27T03:32:21.783Z,11.43
2019-02-27T03:35:15.846Z,17.00
2019-02-27T03:37:52.933Z,15.72
2019-02-27T03:40:39.550Z,14.07
2019-02-27T03:43:32.354Z,10.28
2019-02-27T03:46:24.477Z,12.43
2019-02-27T03:49:10.949Z,18.60
2019-02-27T03:52:02.135Z,14.53
2019-02-27T03:54:36.302Z,16.75
2019-02-27T03:57:25.669Z,14.73
2019-02-27T04:00:06.022Z,13.32
2019-02-27T04:03:00.119Z,12.45
2019-02-27T04:05:31.616Z,12.82
2019-02-27T04:08:22.597Z,16.17
2019-02-27T04:10:51.013Z,13.55
2019-02-27T04:13:19.502Z,17.85
2019-02-27T04:15:53.364Z,13.85
2019-02-27T04:18:17.466Z,16.87
2019-02-27T04:20:50.698Z,12.23
2019-02-27T04:23:17.466Z,13.43
2019-02-27T04:25:45.875Z,15.95
2019-02-27T04:28:14.277Z,14.33
2019-02-27T04:30:42.684Z,13.75
2019-02-27T04:33:11.092Z,11.63
2019-02-27T04:35:40.128Z,13.55
2019-02-27T04:38:08.691Z,15.48
2019-02-27T04:40:37.085Z,14.05
2019-02-27T04:43:05.511Z,18.37
2019-02-27T04:45:33.906Z,10.53
2019-02-27T04:48:02.325Z,17.25
2019-02-27T04:50:30.778Z,14.93
2019-02-27T04:52:59.198Z,13.85
2019-02-27T04:55:27.619Z,20.57
2019-02-27T04:57:56.067Z,15.00
2019-02-27T05:00:26.266Z,13.75
2019-02-27T05:02:54.614Z,11.22
2019-02-27T05:05:23.013Z,9.40
2019-02-27T05:07:54.081Z,11.50
2019-02-27T05:10:21.547Z,11.43
2019-02-27T05:12:49.961Z,13.15
2019-02-27T05:15:18.391Z,10.28
2019-02-27T05:17:46.822Z,14.80
2019-02-27T05:20:15.537Z,12.30
2019-02-27T05:22:43.950Z,11.93
2019-02-27T05:25:14.422Z,10.80
2019-02-27T05:27:42.777Z,10.82
2019-02-27T05:30:12.867Z,14.80
2019-02-27T05:32:41.340Z,10.43
2019-02-27T05:35:09.738Z,14.50
2019-02-27T05:37:39.238Z,10.20
2019-02-27T05:40:09.779Z,10.82
2019-02-27T05:42:38.981Z,14.20
2019-02-27T05:45:10.917Z,15.68
2019-02-27T05:47:39.395Z,13.08
2019-02-27T05:50:12.269Z,11.33
2019-02-27T05:52:40.718Z,14.00
2019-02-27T05:55:09.130Z,14.30
2019-02-27T05:57:37.556Z,12.70
2019-02-27T06:00:09.049Z,15.85
2019-02-27T06:02:37.461Z,16.70
2019-02-27T06:05:06.420Z,16.55
2019-02-27T06:07:34.834Z,12.23
2019-02-27T06:10:04.187Z,12.82
2019-02-27T06:12:32.725Z,10.55
2019-02-27T06:15:01.179Z,11.05
2019-02-27T06:17:29.617Z,15.90
2019-02-27T06:19:58.029Z,17.17
2019-02-27T06:22:27.292Z,12.75
2019-02-27T06:24:56.620Z,15.13
2019-02-27T06:27:25.025Z,12.60
2019-02-27T06:29:56.596Z,17.17
2019-02-27T06:32:23.597Z,18.57
2019-02-27T06:34:52.023Z,15.65
2019-02-27T06:37:20.419Z,15.28
2019-02-27T06:39:48.849Z,12.28
2019-02-27T06:42:17.342Z,10.88
2019-02-27T06:44:45.887Z,17.52
2019-02-27T06:47:14.282Z,10.18
2019-02-27T06:49:42.717Z,10.98
2019-02-27T06:52:11.495Z,13.98
2019-02-27T06:54:39.969Z,10.38
2019-02-27T06:57:08.462Z,16.67
2019-02-27T06:59:36.862Z,13.10
2019-02-27T07:02:05.310Z,20.55
2019-02-27T07:04:36.403Z,15.80
2019-02-27T07:07:03.909Z,16.12
2019-02-27T07:09:32.377Z,10.63
2019-02-27T07:12:00.804Z,8.45
2019-02-27T07:14:29.210Z,8.30
2019-02-27T07:16:57.905Z,13.62
2019-02-27T07:19:26.413Z,9.70
2019-02-27T07:21:54.870Z,12.68
2019-02-27T07:24:23.290Z,13.65
2019-02-27T07:26:51.708Z,8.90
2019-02-27T07:29:21.907Z,15.90
2019-02-27T07:31:52.109Z,10.30
2019-02-27T07:34:20.685Z,8.95
2019-02-27T07:36:49.111Z,10.00
2019-02-27T07:39:17.557Z,10.68
2019-02-27T07:41:45.990Z,8.65
2019-02-27T07:44:14.444Z,12.03
2019-02-27T07:46:42.858Z,11.50
2019-02-27T07:49:11.290Z,11.85
2019-02-27T07:51:39.689Z,13.32
2019-02-27T07:54:08.130Z,10.75
2019-02-27T07:56:36.527Z,9.40
2019-02-27T07:59:05.061Z,14.15
2019-02-27T08:01:43.237Z,10.93
2019-02-27T08:04:03.759Z,16.70
2019-02-27T08:06:34.984Z,11.90
2019-02-27T08:09:02.497Z,19.57
2019-02-27T08:11:30.922Z,10.40
2019-02-27T08:14:00.793Z,18.60
2019-02-27T08:16:29.886Z,15.23
2019-02-27T08:18:58.811Z,15.70
2019-02-27T08:21:27.242Z,16.77
2019-02-27T08:23:55.633Z,18.30
2019-02-27T08:26:24.080Z,14.23
2019-02-27T08:28:52.498Z,16.27
2019-02-27T08:31:20.978Z,16.30
2019-02-27T08:33:49.421Z,15.80
2019-02-27T08:36:17.833Z,15.90
2019-02-27T08:38:46.353Z,17.90
2019-02-27T08:41:14.766Z,14.20
2019-02-27T08:43:43.228Z,17.27
2019-02-27T08:46:11.737Z,13.10
2019-02-27T08:48:40.142Z,16.97
2019-02-27T08:51:08.860Z,16.73
2019-02-27T08:53:37.697Z,17.00
2019-02-27T08:56:06.197Z,20.47
2019-02-27T08:58:34.676Z,17.20
2019-02-27T09:01:04.660Z,18.07
2019-02-27T09:03:36.186Z,21.93
2019-02-27T09:06:03.345Z,18.40
2019-02-27T09:08:31.777Z,17.80
2019-02-27T09:11:05.369Z,14.50
2019-02-27T09:13:30.401Z,14.60
2019-02-27T09:15:58.860Z,13.60
2019-02-27T09:18:27.282Z,13.77
2019-02-27T09:20:55.717Z,15.40
2019-02-27T09:23:24.457Z,18.73
2019-02-27T09:26:12.321Z,13.33
2019-02-27T09:28:44.228Z,14.57
2019-02-27T09:31:12.173Z,15.53
2019-02-27T09:33:41.127Z,14.03
2019-02-27T09:36:10.372Z,21.87
2019-02-27T09:38:39.490Z,29.00
2019-02-27T09:41:12.171Z,1345.23
2019-02-27T09:43:38.151Z,78.03
2019-02-27T09:46:06.619Z,1141.17
2019-02-27T09:48:35.031Z,686.93
2019-02-27T09:51:03.475Z,1999.90
2019-02-27T09:53:34.017Z,901.67
2019-02-27T09:56:02.079Z,1999.90
2019-02-27T09:58:30.585Z,1048.03
2019-02-27T10:01:03.145Z,1124.83
2019-02-27T10:03:32.912Z,1999.90
2019-02-27T10:06:01.442Z,1170.67
2019-02-27T10:08:29.973Z,765.53
2019-02-27T10:10:58.426Z,436.77
2019-02-27T10:13:26.860Z,392.07
2019-02-27T10:16:00.198Z,327.27
2019-02-27T10:18:25.568Z,430.60
2019-02-27T10:20:55.662Z,782.40
2019-02-27T10:23:24.429Z,631.87
2019-02-27T10:25:53.251Z,383.80
2019-02-27T10:28:21.833Z,447.23
2019-02-27T10:30:50.875Z,129.23
2019-02-27T10:33:19.451Z,207.80
2019-02-27T10:35:48.232Z,64.17
2019-02-27T10:38:16.678Z,41.87
2019-02-27T10:40:46.058Z,33.93
2019-02-27T10:43:15.134Z,18.73
2019-02-27T10:45:48.216Z,30.13
2019-02-27T10:48:14.022Z,12.37
2019-02-27T10:50:42.478Z,13.40
2019-02-27T10:53:11.214Z,16.83
2019-02-27T10:55:39.645Z,23.83
2019-02-27T10:58:13.008Z,10.80
2019-02-27T11:00:38.220Z,9.53
2019-02-27T11:03:06.660Z,11.90
2019-02-27T11:05:39.941Z,13.00
2019-02-27T11:08:08.361Z,12.37
2019-02-27T11:10:36.793Z,9.90
2019-02-27T11:13:06.698Z,11.80
2019-02-27T11:15:35.571Z,11.13
2019-02-27T11:18:05.419Z,11.83
2019-02-27T11:20:34.530Z,12.00
2019-02-27T11:23:06.431Z,9.57
2019-02-27T11:25:33.317Z,8.23
2019-02-27T11:28:01.857Z,8.70
2019-02-27T11:30:35.685Z,8.97
2019-02-27T11:33:03.104Z,8.23
2019-02-27T11:35:31.588Z,12.10
2019-02-27T11:38:00.089Z,8.70
2019-02-27T11:40:28.921Z,7.60
2019-02-27T11:42:57.351Z,12.33
2019-02-27T11:45:25.845Z,8.50
2019-02-27T11:47:54.338Z,9.70
2019-02-27T11:50:22.750Z,10.10
2019-02-27T11:52:51.649Z,8.90
2019-02-27T11:55:21.896Z,9.90
2019-02-27T11:57:50.368Z,10.30
2019-02-27T12:00:27.931Z,10.20
2019-02-27T12:02:56.798Z,9.80
2019-02-27T12:05:30.784Z,7.40
2019-02-27T12:07:56.308Z,9.80
2019-02-27T12:10:32.115Z,9.83
2019-02-27T12:13:01.320Z,8.60
2019-02-27T12:15:30.159Z,10.53
2019-02-27T12:18:00.623Z,7.00
2019-02-27T12:20:28.790Z,9.67
2019-02-27T12:22:57.286Z,8.60
2019-02-27T12:25:28.987Z,10.90
2019-02-27T12:27:56.843Z,5.90
2019-02-27T12:30:30.709Z,9.43
2019-02-27T12:32:59.149Z,9.97
2019-02-27T12:35:30.073Z,7.73
2019-02-27T12:37:58.533Z,9.57
2019-02-27T12:40:27.066Z,8.80
2019-02-27T12:42:55.945Z,8.57
2019-02-27T12:45:27.108Z,8.70
2019-02-27T12:47:56.959Z,8.70
2019-02-27T12:50:30.799Z,8.47
2019-02-27T12:52:57.325Z,7.40
2019-02-27T12:55:28.299Z,7.30
2019-02-27T12:57:56.805Z,6.80
2019-02-27T13:00:33.462Z,6.93
2019-02-27T13:03:01.942Z,9.60
2019-02-27T13:05:30.434Z,8.30
2019-02-27T13:07:58.925Z,10.80
2019-02-27T13:10:33.003Z,9.43
2019-02-27T13:12:58.143Z,7.53
2019-02-27T13:15:29.001Z,9.07
2019-02-27T13:18:00.066Z,6.60
2019-02-27T13:20:34.307Z,7.27
2019-02-27T13:23:05.108Z,11.20
2019-02-27T13:25:32.889Z,13.17
2019-02-27T13:28:01.297Z,9.33
2019-02-27T13:30:29.726Z,9.27
2019-02-27T13:33:00.625Z,7.47
2019-02-27T13:35:28.881Z,9.50
2019-02-27T13:37:57.523Z,9.10
2019-02-27T13:40:27.310Z,10.00
2019-02-27T13:42:55.817Z,10.73
2019-02-27T13:45:26.237Z,7.03
2019-02-27T13:47:54.970Z,8.40
2019-02-27T13:50:26.490Z,11.40
2019-02-27T13:52:54.194Z,7.67
2019-02-27T13:55:23.684Z,7.83
2019-02-27T13:57:52.238Z,7.57
2019-02-27T14:00:31.617Z,11.10
2019-02-27T14:03:00.041Z,8.50
2019-02-27T14:05:29.504Z,7.77
2019-02-27T14:07:59.065Z,10.93
2019-02-27T14:10:34.137Z,8.93
2019-02-27T14:13:02.661Z,11.67
2019-02-27T14:15:31.817Z,10.37
2019-02-27T14:18:00.441Z,7.60
2019-02-27T14:20:29.188Z,7.73
2019-02-27T14:22:58.216Z,9.73
2019-02-27T14:25:34.076Z,6.77
2019-02-27T14:28:02.499Z,15.67
2019-02-27T14:30:36.657Z,6.97
2019-02-27T14:33:05.232Z,8.90
2019-02-27T14:35:36.198Z,10.20
2019-02-27T14:38:04.249Z,8.30
2019-02-27T14:40:37.758Z,10.37
2019-02-27T14:43:02.844Z,10.90
2019-02-27T14:45:31.268Z,8.33
2019-02-27T14:48:00.039Z,6.83
2019-02-27T14:50:33.492Z,10.60
2019-02-27T14:52:58.589Z,7.33
2019-02-27T14:55:27.017Z,9.50
2019-02-27T14:57:55.503Z,8.23
2019-02-27T15:00:32.196Z,7.40
2019-02-27T15:03:00.623Z,10.57
2019-02-27T15:05:29.065Z,8.17
2019-02-27T15:07:57.541Z,7.20
2019-02-27T15:10:26.096Z,8.23
2019-02-27T15:12:55.590Z,6.57
2019-02-27T15:15:29.516Z,6.87
2019-02-27T15:17:58.099Z,6.60
2019-02-27T15:20:27.856Z,8.83
2019-02-27T15:22:56.344Z,10.27
2019-02-27T15:25:27.185Z,9.03
2019-02-27T15:27:58.370Z,11.83
2019-02-27T15:30:28.405Z,17.20
2019-02-27T15:32:56.801Z,8.77
2019-02-27T15:35:25.219Z,6.63
2019-02-27T15:37:53.730Z,11.03
2019-02-27T15:40:30.193Z,9.97
2019-02-27T15:42:59.063Z,9.20
2019-02-27T15:45:28.832Z,10.30
2019-02-27T15:47:57.377Z,8.27
2019-02-27T15:50:31.524Z,10.57
2019-02-27T15:53:00.316Z,8.30
2019-02-27T15:55:33.046Z,11.33
2019-02-27T15:57:59.127Z,7.77
2019-02-27T16:00:28.630Z,9.70
2019-02-27T16:02:57.633Z,9.40
2019-02-27T16:05:30.210Z,8.23
2019-02-27T16:07:56.261Z,9.40
2019-02-27T16:10:29.257Z,8.33
2019-02-27T16:13:00.949Z,11.97
2019-02-27T16:15:28.133Z,7.17
2019-02-27T16:17:56.538Z,8.30
2019-02-27T16:20:26.195Z,7.60
2019-02-27T16:22:54.746Z,8.33
2019-02-27T16:25:25.493Z,10.13
2019-02-27T16:27:54.310Z,10.27
2019-02-27T16:30:33.196Z,6.80
2019-02-27T16:33:01.661Z,7.63
2019-02-27T16:35:30.177Z,7.63
2019-02-27T16:37:58.683Z,8.37
2019-02-27T16:40:28.332Z,8.33
2019-02-27T16:42:56.846Z,11.53
2019-02-27T16:45:37.099Z,9.50
2019-02-27T16:48:06.002Z,11.03
2019-02-27T16:50:34.563Z,10.93
2019-02-27T16:53:03.047Z,11.50
2019-02-27T16:55:36.006Z,11.37
2019-02-27T16:58:02.053Z,11.47
2019-02-27T17:00:36.097Z,17.20
2019-02-27T17:03:04.665Z,11.80
2019-02-27T17:05:33.077Z,14.43
2019-02-27T17:08:02.702Z,13.70
2019-02-27T17:10:33.581Z,17.40
2019-02-27T17:13:02.081Z,25.27
2019-02-27T17:15:34.322Z,29.87
2019-02-27T17:18:01.384Z,38.33
2019-02-27T17:20:30.241Z,48.70
2019-02-27T17:22:58.659Z,49.50
2019-02-27T17:25:29.945Z,56.83
2019-02-27T17:27:57.228Z,64.00
2019-02-27T17:30:28.050Z,74.37
2019-02-27T17:32:56.553Z,150.90
2019-02-27T17:35:25.070Z,133.43
2019-02-27T17:37:53.823Z,173.30
2019-02-27T17:40:22.630Z,452.07
2019-02-27T17:42:53.452Z,500.50
2019-02-27T17:45:25.683Z,407.70
2019-02-27T17:47:54.130Z,260.60
2019-02-27T17:50:22.577Z,139.60
2019-02-27T17:52:51.925Z,1999.90
2019-02-27T17:55:20.420Z,1999.90
2019-02-27T17:57:48.853Z,1999.90
2019-02-27T18:00:24.013Z,470.10
2019-02-27T18:02:52.446Z,312.13
2019-02-27T18:05:22.345Z,435.23
2019-02-27T18:07:51.150Z,448.90
2019-02-27T18:10:19.605Z,31.97
2019-02-27T18:12:48.133Z,83.30
2019-02-27T18:15:20.480Z,1999.90
2019-02-27T18:17:49.321Z,1999.90
2019-02-27T18:20:17.800Z,1999.90
2019-02-27T18:22:49.407Z,1999.90
2019-02-27T18:25:18.126Z,1434.50
2019-02-27T18:27:47.920Z,1475.10
2019-02-27T18:30:24.819Z,511.37
2019-02-27T18:32:53.313Z,773.07
2019-02-27T18:35:21.747Z,822.03
2019-02-27T18:37:53.603Z,278.93
2019-02-27T18:40:20.780Z,86.80
2019-02-27T18:42:49.189Z,156.97
2019-02-27T18:45:25.928Z,115.03
2019-02-27T18:47:54.344Z,132.00
2019-02-27T18:50:24.877Z,59.30
2019-02-27T18:52:52.966Z,15.73
2019-02-27T18:55:21.441Z,26.23
2019-02-27T18:57:49.876Z,11.97
2019-02-27T19:00:28.945Z,22.20
2019-02-27T19:03:00.006Z,16.10
2019-02-27T19:05:28.502Z,15.17
2019-02-27T19:07:56.989Z,17.07
2019-02-27T19:10:26.008Z,17.67
2019-02-27T19:12:54.504Z,15.13
2019-02-27T19:15:25.008Z,18.35
2019-02-27T19:17:53.799Z,20.67
2019-02-27T19:20:37.408Z,16.37
2019-02-27T19:23:05.992Z,20.63
2019-02-27T19:25:35.425Z,13.87
2019-02-27T19:28:04.165Z,11.73
2019-02-27T19:30:34.617Z,11.93
2019-02-27T19:33:02.825Z,12.33
2019-02-27T19:35:31.251Z,17.62
2019-02-27T19:37:59.720Z,16.67
2019-02-27T19:40:30.584Z,14.38
2019-02-27T19:43:03.792Z,30.85
2019-02-27T19:45:32.313Z,15.17
2019-02-27T19:48:00.827Z,22.07
2019-02-27T19:50:29.779Z,12.93
2019-02-27T19:53:03.353Z,14.78
2019-02-27T19:55:28.399Z,24.12
2019-02-27T19:57:56.820Z,20.37
2019-02-27T20:00:35.536Z,19.48
2019-02-27T20:03:04.623Z,17.82
2019-02-27T20:05:33.055Z,19.30
2019-02-27T20:08:02.457Z,18.70
2019-02-27T20:10:33.307Z,20.82
2019-02-27T20:13:01.375Z,18.32
2019-02-27T20:15:29.873Z,15.93
2019-02-27T20:17:58.746Z,13.60
2019-02-27T20:20:27.227Z,15.83
2019-02-27T20:22:55.657Z,15.45
2019-02-27T20:25:26.317Z,16.02
2019-02-27T20:27:57.987Z,18.07
2019-02-27T20:30:25.067Z,12.20
2019-02-27T20:32:53.925Z,14.43
2019-02-27T20:35:22.343Z,10.28
2019-02-27T20:37:51.105Z,11.78
2019-02-27T20:40:20.585Z,15.88
2019-02-27T20:42:50.419Z,12.78
2019-02-27T20:45:20.509Z,15.25
2019-02-27T20:47:48.993Z,12.45
2019-02-27T20:50:40.938Z,10.55
2019-02-27T20:53:11.950Z,18.87
2019-02-27T20:55:40.407Z,12.20
2019-02-27T20:58:08.918Z,16.27
2019-02-27T21:00:37.381Z,19.37
2019-02-27T21:03:06.106Z,13.72
2019-02-27T21:05:34.549Z,17.25
2019-02-27T21:08:02.958Z,13.08
2019-02-27T21:10:33.229Z,19.77
2019-02-27T21:13:01.718Z,23.45
2019-02-27T21:15:32.499Z,16.32
2019-02-27T21:18:00.842Z,13.75
2019-02-27T21:20:29.387Z,19.27
2019-02-27T21:22:59.866Z,16.42
2019-02-27T21:25:28.037Z,13.53
2019-02-27T21:27:56.498Z,27.15
2019-02-27T21:30:25.905Z,16.37
2019-02-27T21:32:54.689Z,18.25
2019-02-27T21:35:28.919Z,22.90
2019-02-27T21:37:53.522Z,16.73
2019-02-27T21:40:22.498Z,19.52
2019-02-27T21:42:51.878Z,14.90
2019-02-27T21:45:24.296Z,18.20
2019-02-27T21:47:53.372Z,15.93
2019-02-27T21:50:23.526Z,21.87
2019-02-27T21:52:54.421Z,27.82
2019-02-27T21:55:22.133Z,17.73
2019-02-27T21:57:50.615Z,22.25
2019-02-27T22:00:27.806Z,19.20
2019-02-27T22:02:57.569Z,21.70
2019-02-27T22:05:26.468Z,22.50
2019-02-27T22:07:54.911Z,25.05
2019-02-27T22:10:23.789Z,21.75
2019-02-27T22:12:52.293Z,17.87
2019-02-27T22:15:30.739Z,13.83
2019-02-27T22:17:59.167Z,19.10
2019-02-27T22:20:27.728Z,22.07
2019-02-27T22:22:56.158Z,30.30
2019-02-27T22:25:30.199Z,21.77
2019-02-27T22:27:54.914Z,20.92
2019-02-27T22:30:23.663Z,21.17
2019-02-27T22:32:52.061Z,28.47
2019-02-27T22:35:23.105Z,22.07
2019-02-27T22:37:52.666Z,17.42
2019-02-27T22:40:22.587Z,16.25
2019-02-27T22:42:51.091Z,17.50
2019-02-27T22:45:22.201Z,18.90
2019-02-27T22:47:54.020Z,15.35
2019-02-27T22:50:21.840Z,16.32
2019-02-27T22:52:54.233Z,15.18
2019-02-27T22:55:20.589Z,14.38
2019-02-27T22:57:48.996Z,17.25
2019-02-27T23:00:56.097Z,19.32
2019-02-27T23:03:27.857Z,14.18
2019-02-27T23:05:56.279Z,19.20
2019-02-27T23:08:24.871Z,14.15
2019-02-27T23:10:53.706Z,15.23
2019-02-27T23:13:22.266Z,14.58
2019-02-27T23:15:50.673Z,18.25
2019-02-27T23:18:19.134Z,16.25
2019-02-27T23:20:47.583Z,18.75
2019-02-27T23:23:15.982Z,16.35
2019-02-27T23:25:46.569Z,15.65
2019-02-27T23:28:14.595Z,18.00
2019-02-27T23:30:46.924Z,19.98
2019-02-27T23:33:14.043Z,18.17
2019-02-27T23:35:42.470Z,15.72
2019-02-27T23:38:10.876Z,13.13
2019-02-27T23:40:39.369Z,12.88
2019-02-27T23:43:07.769Z,15.50
2019-02-27T23:45:36.214Z,17.65
2019-02-27T23:48:04.769Z,15.00
2019-02-27T23:50:33.201Z,12.93
2019-02-27T23:53:01.611Z,14.33
2019-02-27T23:55:30.114Z,11.12
2019-02-27T23:57:58.595Z,15.05
